sensor_id;sensor_type;location;lat;lon;timestamp;P1;durP1;ratioP1;P2;durP2;ratioP2
29380;SDS011;16364;52.490;13.326;2023-04-01T00:00:59;3.33;;;2.00;;
29380;SDS011;16364;52.490;13.326;2023-04-01T00:03:25;2.30;;;2.10;;
29380;SDS011;16364;52.490;13.326;2023-04-01T00:05:51;3.30;;;2.00;;
29380;SDS011;16364;52.490;13.326;2023-04-01T00:08:17;2.93;;;1.93;;
29380;SDS011;16364;52.490;13.326;2023-04-01T00:10:43;3.00;;;1.73;;
29380;SDS011;16364;52.490;13.326;2023-04-01T00:13:08;5.97;;;2.30;;
29380;SDS011;16364;52.490;13.326;2023-04-01T00:15:34;1.77;;;1.67;;
29380;SDS011;16364;52.490;13.326;2023-04-01T00:17:59;2.70;;;2.23;;
29380;SDS011;16364;52.490;13.326;2023-04-01T00:20:25;2.10;;;1.90;;
29380;SDS011;16364;52.490;13.326;2023-04-01T00:22:51;3.30;;;2.30;;
29380;SDS011;16364;52.490;13.326;2023-04-01T00:25:16;2.60;;;2.40;;
29380;SDS011;16364;52.490;13.326;2023-04-01T00:27:42;2.57;;;2.20;;
29380;SDS011;16364;52.490;13.326;2023-04-01T00:30:07;4.23;;;2.30;;
29380;SDS011;16364;52.490;13.326;2023-04-01T00:32:33;4.23;;;2.27;;
29380;SDS011;16364;52.490;13.326;2023-04-01T00:34:59;5.53;;;2.13;;
29380;SDS011;16364;52.490;13.326;2023-04-01T00:37:28;5.23;;;1.83;;
29380;SDS011;16364;52.490;13.326;2023-04-01T00:39:56;3.10;;;2.60;;
29380;SDS011;16364;52.490;13.326;2023-04-01T00:42:21;4.03;;;2.37;;
29380;SDS011;16364;52.490;13.326;2023-04-01T00:44:53;5.33;;;2.47;;
29380;SDS011;16364;52.490;13.326;2023-04-01T00:47:19;5.80;;;1.97;;
29380;SDS011;16364;52.490;13.326;2023-04-01T00:49:45;2.50;;;1.93;;
29380;SDS011;16364;52.490;13.326;2023-04-01T00:52:12;6.40;;;1.93;;
29380;SDS011;16364;52.490;13.326;2023-04-01T00:54:38;9.90;;;2.47;;
29380;SDS011;16364;52.490;13.326;2023-04-01T00:57:05;3.70;;;1.90;;
29380;SDS011;16364;52.490;13.326;2023-04-01T00:59:34;4.60;;;2.30;;
29380;SDS011;16364;52.490;13.326;2023-04-01T01:02:02;3.00;;;2.10;;
29380;SDS011;16364;52.490;13.326;2023-04-01T01:04:28;2.37;;;1.97;;
29380;SDS011;16364;52.490;13.326;2023-04-01T01:07:06;3.83;;;2.20;;
29380;SDS011;16364;52.490;13.326;2023-04-01T01:09:53;4.70;;;1.70;;
29380;SDS011;16364;52.490;13.326;2023-04-01T01:12:23;3.20;;;2.13;;
29380;SDS011;16364;52.490;13.326;2023-04-01T01:23:07;3.33;;;1.70;;
29380;SDS011;16364;52.490;13.326;2023-04-01T01:36:04;2.73;;;1.80;;
29380;SDS011;16364;52.490;13.326;2023-04-01T01:38:32;2.30;;;1.80;;
29380;SDS011;16364;52.490;13.326;2023-04-01T01:40:59;1.77;;;1.50;;
29380;SDS011;16364;52.490;13.326;2023-04-01T01:43:26;2.33;;;1.70;;
29380;SDS011;16364;52.490;13.326;2023-04-01T01:45:54;3.43;;;1.77;;
29380;SDS011;16364;52.490;13.326;2023-04-01T01:48:20;1.70;;;1.60;;
29380;SDS011;16364;52.490;13.326;2023-04-01T01:50:46;4.73;;;1.70;;
29380;SDS011;16364;52.490;13.326;2023-04-01T01:53:13;6.97;;;1.80;;
29380;SDS011;16364;52.490;13.326;2023-04-01T01:55:39;4.00;;;1.83;;
29380;SDS011;16364;52.490;13.326;2023-04-01T02:00:51;2.10;;;1.40;;
29380;SDS011;16364;52.490;13.326;2023-04-01T02:03:18;2.70;;;1.70;;
29380;SDS011;16364;52.490;13.326;2023-04-01T02:05:45;5.17;;;1.90;;
29380;SDS011;16364;52.490;13.326;2023-04-01T02:10:37;3.43;;;1.67;;
29380;SDS011;16364;52.490;13.326;2023-04-01T02:13:06;3.23;;;1.47;;
29380;SDS011;16364;52.490;13.326;2023-04-01T02:15:35;2.30;;;1.60;;
29380;SDS011;16364;52.490;13.326;2023-04-01T02:18:02;1.67;;;1.57;;
29380;SDS011;16364;52.490;13.326;2023-04-01T02:20:28;3.70;;;1.50;;
29380;SDS011;16364;52.490;13.326;2023-04-01T02:22:54;4.03;;;2.00;;
29380;SDS011;16364;52.490;13.326;2023-04-01T02:25:22;2.97;;;1.80;;
29380;SDS011;16364;52.490;13.326;2023-04-01T02:27:48;2.70;;;1.50;;
29380;SDS011;16364;52.490;13.326;2023-04-01T02:30:14;2.77;;;1.93;;
29380;SDS011;16364;52.490;13.326;2023-04-01T02:32:40;2.30;;;1.77;;
29380;SDS011;16364;52.490;13.326;2023-04-01T02:35:06;3.33;;;1.60;;
29380;SDS011;16364;52.490;13.326;2023-04-01T02:37:32;2.27;;;1.87;;
29380;SDS011;16364;52.490;13.326;2023-04-01T02:40:00;1.90;;;1.60;;
29380;SDS011;16364;52.490;13.326;2023-04-01T02:42:26;3.13;;;1.87;;
29380;SDS011;16364;52.490;13.326;2023-04-01T02:44:52;2.10;;;1.90;;
29380;SDS011;16364;52.490;13.326;2023-04-01T02:47:17;2.60;;;1.80;;
29380;SDS011;16364;52.490;13.326;2023-04-01T02:49:42;4.00;;;1.83;;
29380;SDS011;16364;52.490;13.326;2023-04-01T02:52:07;3.33;;;1.97;;
29380;SDS011;16364;52.490;13.326;2023-04-01T02:54:32;3.30;;;1.70;;
29380;SDS011;16364;52.490;13.326;2023-04-01T02:56:58;1.80;;;1.70;;
29380;SDS011;16364;52.490;13.326;2023-04-01T02:59:23;3.10;;;1.93;;
29380;SDS011;16364;52.490;13.326;2023-04-01T03:01:48;2.00;;;1.50;;
29380;SDS011;16364;52.490;13.326;2023-04-01T03:04:13;2.33;;;2.13;;
29380;SDS011;16364;52.490;13.326;2023-04-01T03:06:38;2.07;;;1.50;;
29380;SDS011;16364;52.490;13.326;2023-04-01T03:09:04;2.60;;;1.63;;
29380;SDS011;16364;52.490;13.326;2023-04-01T03:11:29;4.00;;;2.20;;
29380;SDS011;16364;52.490;13.326;2023-04-01T03:13:55;3.63;;;2.10;;
29380;SDS011;16364;52.490;13.326;2023-04-01T03:16:20;4.43;;;1.80;;
29380;SDS011;16364;52.490;13.326;2023-04-01T03:18:45;3.10;;;2.60;;
29380;SDS011;16364;52.490;13.326;2023-04-01T03:21:18;2.63;;;2.00;;
29380;SDS011;16364;52.490;13.326;2023-04-01T03:23:43;2.07;;;1.87;;
29380;SDS011;16364;52.490;13.326;2023-04-01T03:26:09;2.07;;;1.93;;
29380;SDS011;16364;52.490;13.326;2023-04-01T03:28:34;2.47;;;1.87;;
29380;SDS011;16364;52.490;13.326;2023-04-01T03:31:00;3.20;;;2.10;;
29380;SDS011;16364;52.490;13.326;2023-04-01T03:33:25;2.90;;;2.07;;
29380;SDS011;16364;52.490;13.326;2023-04-01T03:35:50;2.87;;;1.73;;
29380;SDS011;16364;52.490;13.326;2023-04-01T03:38:17;4.37;;;2.27;;
29380;SDS011;16364;52.490;13.326;2023-04-01T03:40:42;2.77;;;2.60;;
29380;SDS011;16364;52.490;13.326;2023-04-01T03:43:07;5.90;;;2.40;;
29380;SDS011;16364;52.490;13.326;2023-04-01T03:45:34;2.67;;;2.10;;
29380;SDS011;16364;52.490;13.326;2023-04-01T03:48:00;2.10;;;1.90;;
29380;SDS011;16364;52.490;13.326;2023-04-01T03:50:25;2.87;;;2.17;;
29380;SDS011;16364;52.490;13.326;2023-04-01T03:52:51;7.27;;;2.63;;
29380;SDS011;16364;52.490;13.326;2023-04-01T03:55:16;5.40;;;2.83;;
29380;SDS011;16364;52.490;13.326;2023-04-01T03:57:43;3.23;;;2.40;;
29380;SDS011;16364;52.490;13.326;2023-04-01T04:00:08;7.43;;;2.10;;
29380;SDS011;16364;52.490;13.326;2023-04-01T04:02:34;2.70;;;1.90;;
29380;SDS011;16364;52.490;13.326;2023-04-01T04:04:59;5.63;;;1.87;;
29380;SDS011;16364;52.490;13.326;2023-04-01T04:07:24;3.80;;;2.43;;
29380;SDS011;16364;52.490;13.326;2023-04-01T04:09:50;3.50;;;2.10;;
29380;SDS011;16364;52.490;13.326;2023-04-01T04:12:17;2.63;;;2.30;;
29380;SDS011;16364;52.490;13.326;2023-04-01T04:14:42;8.47;;;2.00;;
29380;SDS011;16364;52.490;13.326;2023-04-01T04:17:09;8.70;;;4.00;;
29380;SDS011;16364;52.490;13.326;2023-04-01T04:19:38;4.00;;;2.90;;
29380;SDS011;16364;52.490;13.326;2023-04-01T04:22:03;6.63;;;2.33;;
29380;SDS011;16364;52.490;13.326;2023-04-01T04:24:29;3.00;;;2.20;;
29380;SDS011;16364;52.490;13.326;2023-04-01T04:26:54;4.97;;;2.30;;
29380;SDS011;16364;52.490;13.326;2023-04-01T04:29:19;2.87;;;2.67;;
29380;SDS011;16364;52.490;13.326;2023-04-01T04:31:45;9.00;;;2.50;;
29380;SDS011;16364;52.490;13.326;2023-04-01T04:34:10;5.00;;;2.50;;
29380;SDS011;16364;52.490;13.326;2023-04-01T04:36:35;3.30;;;2.37;;
29380;SDS011;16364;52.490;13.326;2023-04-01T04:39:01;3.20;;;2.77;;
29380;SDS011;16364;52.490;13.326;2023-04-01T04:41:28;5.17;;;2.63;;
29380;SDS011;16364;52.490;13.326;2023-04-01T04:43:54;2.50;;;2.00;;
29380;SDS011;16364;52.490;13.326;2023-04-01T04:46:20;4.40;;;2.50;;
29380;SDS011;16364;52.490;13.326;2023-04-01T04:48:45;5.10;;;2.50;;
29380;SDS011;16364;52.490;13.326;2023-04-01T04:51:15;3.50;;;2.10;;
29380;SDS011;16364;52.490;13.326;2023-04-01T04:53:40;3.33;;;2.33;;
29380;SDS011;16364;52.490;13.326;2023-04-01T04:56:06;5.80;;;2.67;;
29380;SDS011;16364;52.490;13.326;2023-04-01T04:58:31;3.00;;;2.07;;
29380;SDS011;16364;52.490;13.326;2023-04-01T05:00:56;3.47;;;2.80;;
29380;SDS011;16364;52.490;13.326;2023-04-01T05:03:21;3.57;;;2.40;;
29380;SDS011;16364;52.490;13.326;2023-04-01T05:05:51;3.33;;;2.60;;
29380;SDS011;16364;52.490;13.326;2023-04-01T05:08:17;3.47;;;2.43;;
29380;SDS011;16364;52.490;13.326;2023-04-01T05:10:42;2.60;;;2.40;;
29380;SDS011;16364;52.490;13.326;2023-04-01T05:13:07;3.97;;;2.47;;
29380;SDS011;16364;52.490;13.326;2023-04-01T05:15:33;2.83;;;2.10;;
29380;SDS011;16364;52.490;13.326;2023-04-01T05:17:58;6.63;;;2.17;;
29380;SDS011;16364;52.490;13.326;2023-04-01T05:20:24;4.53;;;2.77;;
29380;SDS011;16364;52.490;13.326;2023-04-01T05:22:49;6.67;;;2.37;;
29380;SDS011;16364;52.490;13.326;2023-04-01T05:25:14;4.20;;;2.73;;
29380;SDS011;16364;52.490;13.326;2023-04-01T05:27:39;3.87;;;2.90;;
29380;SDS011;16364;52.490;13.326;2023-04-01T05:30:05;2.90;;;2.00;;
29380;SDS011;16364;52.490;13.326;2023-04-01T05:32:30;3.00;;;2.67;;
29380;SDS011;16364;52.490;13.326;2023-04-01T05:34:56;4.70;;;2.73;;
29380;SDS011;16364;52.490;13.326;2023-04-01T05:37:21;4.77;;;2.47;;
29380;SDS011;16364;52.490;13.326;2023-04-01T05:39:47;3.50;;;2.37;;
29380;SDS011;16364;52.490;13.326;2023-04-01T05:42:13;3.00;;;2.20;;
29380;SDS011;16364;52.490;13.326;2023-04-01T05:44:38;3.67;;;2.23;;
29380;SDS011;16364;52.490;13.326;2023-04-01T05:47:04;2.80;;;2.13;;
29380;SDS011;16364;52.490;13.326;2023-04-01T05:49:29;3.43;;;2.20;;
29380;SDS011;16364;52.490;13.326;2023-04-01T05:51:55;2.13;;;1.90;;
29380;SDS011;16364;52.490;13.326;2023-04-01T05:54:20;4.03;;;2.57;;
29380;SDS011;16364;52.490;13.326;2023-04-01T05:56:45;2.40;;;2.20;;
29380;SDS011;16364;52.490;13.326;2023-04-01T05:59:11;7.50;;;2.50;;
29380;SDS011;16364;52.490;13.326;2023-04-01T06:01:37;4.67;;;2.00;;
29380;SDS011;16364;52.490;13.326;2023-04-01T06:04:02;6.70;;;2.50;;
29380;SDS011;16364;52.490;13.326;2023-04-01T06:06:28;4.27;;;3.00;;
29380;SDS011;16364;52.490;13.326;2023-04-01T06:08:56;6.43;;;2.77;;
29380;SDS011;16364;52.490;13.326;2023-04-01T06:14:17;8.23;;;2.50;;
29380;SDS011;16364;52.490;13.326;2023-04-01T06:16:54;3.50;;;1.90;;
29380;SDS011;16364;52.490;13.326;2023-04-01T06:24:48;3.53;;;2.00;;
29380;SDS011;16364;52.490;13.326;2023-04-01T06:30:03;6.93;;;2.73;;
29380;SDS011;16364;52.490;13.326;2023-04-01T06:42:41;4.23;;;2.87;;
29380;SDS011;16364;52.490;13.326;2023-04-01T06:50:11;7.50;;;3.40;;
29380;SDS011;16364;52.490;13.326;2023-04-01T06:55:17;6.13;;;3.80;;
29380;SDS011;16364;52.490;13.326;2023-04-01T06:57:46;6.37;;;2.87;;
29380;SDS011;16364;52.490;13.326;2023-04-01T07:00:13;7.33;;;3.30;;
29380;SDS011;16364;52.490;13.326;2023-04-01T07:02:41;3.20;;;2.90;;
29380;SDS011;16364;52.490;13.326;2023-04-01T07:05:08;6.77;;;2.77;;
29380;SDS011;16364;52.490;13.326;2023-04-01T07:07:41;2.60;;;2.40;;
29380;SDS011;16364;52.490;13.326;2023-04-01T07:10:12;3.70;;;2.53;;
29380;SDS011;16364;52.490;13.326;2023-04-01T07:12:44;4.20;;;3.20;;
29380;SDS011;16364;52.490;13.326;2023-04-01T07:15:14;8.43;;;3.10;;
29380;SDS011;16364;52.490;13.326;2023-04-01T07:17:41;6.87;;;3.03;;
29380;SDS011;16364;52.490;13.326;2023-04-01T07:22:46;4.97;;;2.50;;
29380;SDS011;16364;52.490;13.326;2023-04-01T07:25:14;2.83;;;2.43;;
29380;SDS011;16364;52.490;13.326;2023-04-01T07:27:41;5.03;;;2.77;;
29380;SDS011;16364;52.490;13.326;2023-04-01T07:30:13;4.03;;;2.57;;
29380;SDS011;16364;52.490;13.326;2023-04-01T07:32:49;4.70;;;2.60;;
29380;SDS011;16364;52.490;13.326;2023-04-01T07:49:08;3.57;;;1.80;;
29380;SDS011;16364;52.490;13.326;2023-04-01T07:57:00;4.37;;;2.00;;
29380;SDS011;16364;52.490;13.326;2023-04-01T08:07:18;2.17;;;1.97;;
29380;SDS011;16364;52.490;13.326;2023-04-01T08:12:30;5.20;;;1.70;;
29380;SDS011;16364;52.490;13.326;2023-04-01T08:17:27;4.07;;;1.80;;
29380;SDS011;16364;52.490;13.326;2023-04-01T08:20:07;3.47;;;1.90;;
29380;SDS011;16364;52.490;13.326;2023-04-01T08:25:04;2.83;;;2.17;;
29380;SDS011;16364;52.490;13.326;2023-04-01T08:30:06;3.80;;;1.93;;
29380;SDS011;16364;52.490;13.326;2023-04-01T08:32:39;6.50;;;2.00;;
29380;SDS011;16364;52.490;13.326;2023-04-01T08:35:12;3.63;;;1.90;;
29380;SDS011;16364;52.490;13.326;2023-04-01T08:37:41;4.10;;;2.07;;
29380;SDS011;16364;52.490;13.326;2023-04-01T08:40:28;1.60;;;1.40;;
29380;SDS011;16364;52.490;13.326;2023-04-01T08:53:24;1.63;;;1.53;;
29380;SDS011;16364;52.490;13.326;2023-04-01T09:03:51;1.53;;;1.43;;
29380;SDS011;16364;52.490;13.326;2023-04-01T09:11:22;3.30;;;2.53;;
29380;SDS011;16364;52.490;13.326;2023-04-01T09:21:36;2.60;;;2.40;;
29380;SDS011;16364;52.490;13.326;2023-04-01T09:24:19;4.77;;;3.60;;
29380;SDS011;16364;52.490;13.326;2023-04-01T09:27:02;5.47;;;4.97;;
29380;SDS011;16364;52.490;13.326;2023-04-01T09:45:07;8.80;;;7.10;;
29380;SDS011;16364;52.490;13.326;2023-04-01T09:55:55;7.47;;;6.73;;
29380;SDS011;16364;52.490;13.326;2023-04-01T10:01:20;7.67;;;6.50;;
29380;SDS011;16364;52.490;13.326;2023-04-01T10:06:41;8.27;;;6.80;;
29380;SDS011;16364;52.490;13.326;2023-04-01T10:38:01;9.60;;;8.60;;
29380;SDS011;16364;52.490;13.326;2023-04-01T10:40:38;11.27;;;7.40;;
29380;SDS011;16364;52.490;13.326;2023-04-01T10:48:23;7.83;;;7.17;;
29380;SDS011;16364;52.490;13.326;2023-04-01T11:07:29;6.73;;;6.10;;
29380;SDS011;16364;52.490;13.326;2023-04-01T11:39:01;6.40;;;6.00;;
29380;SDS011;16364;52.490;13.326;2023-04-01T11:41:33;7.90;;;7.30;;
29380;SDS011;16364;52.490;13.326;2023-04-01T11:51:59;6.77;;;6.27;;
29380;SDS011;16364;52.490;13.326;2023-04-01T12:02:25;3.97;;;3.57;;
29380;SDS011;16364;52.490;13.326;2023-04-01T12:05:07;4.13;;;3.83;;
29380;SDS011;16364;52.490;13.326;2023-04-01T12:10:26;4.23;;;3.93;;
29380;SDS011;16364;52.490;13.326;2023-04-01T12:13:16;4.07;;;3.87;;
29380;SDS011;16364;52.490;13.326;2023-04-01T12:18:27;4.40;;;4.07;;
29380;SDS011;16364;52.490;13.326;2023-04-01T12:21:21;5.80;;;5.30;;
29380;SDS011;16364;52.490;13.326;2023-04-01T12:26:16;8.07;;;7.37;;
29380;SDS011;16364;52.490;13.326;2023-04-01T12:28:57;8.43;;;7.67;;
29380;SDS011;16364;52.490;13.326;2023-04-01T12:34:21;8.50;;;7.80;;
29380;SDS011;16364;52.490;13.326;2023-04-01T12:39:32;8.87;;;7.93;;
29380;SDS011;16364;52.490;13.326;2023-04-01T12:44:32;7.30;;;6.77;;
29380;SDS011;16364;52.490;13.326;2023-04-01T12:47:16;6.67;;;6.07;;
29380;SDS011;16364;52.490;13.326;2023-04-01T12:50:12;6.30;;;5.80;;
29380;SDS011;16364;52.490;13.326;2023-04-01T12:57:49;6.50;;;6.00;;
29380;SDS011;16364;52.490;13.326;2023-04-01T13:26:13;11.80;;;10.17;;
29380;SDS011;16364;52.490;13.326;2023-04-01T13:36:46;11.33;;;10.27;;
29380;SDS011;16364;52.490;13.326;2023-04-01T13:42:14;10.17;;;9.17;;
29380;SDS011;16364;52.490;13.326;2023-04-01T13:44:47;9.63;;;8.63;;
29380;SDS011;16364;52.490;13.326;2023-04-01T13:52:32;8.87;;;8.07;;
29380;SDS011;16364;52.490;13.326;2023-04-01T14:02:42;9.20;;;7.60;;
29380;SDS011;16364;52.490;13.326;2023-04-01T14:05:29;7.77;;;7.07;;
29380;SDS011;16364;52.490;13.326;2023-04-01T14:10:34;7.20;;;6.60;;
29380;SDS011;16364;52.490;13.326;2023-04-01T14:13:05;8.03;;;7.27;;
29380;SDS011;16364;52.490;13.326;2023-04-01T14:15:39;7.17;;;6.53;;
29380;SDS011;16364;52.490;13.326;2023-04-01T14:32:03;7.27;;;6.20;;
29380;SDS011;16364;52.490;13.326;2023-04-01T14:47:56;5.80;;;5.40;;
29380;SDS011;16364;52.490;13.326;2023-04-01T14:50:24;5.30;;;5.00;;
29380;SDS011;16364;52.490;13.326;2023-04-01T15:01:07;5.20;;;4.80;;
29380;SDS011;16364;52.490;13.326;2023-04-01T15:11:49;5.60;;;5.20;;
29380;SDS011;16364;52.490;13.326;2023-04-01T15:19:46;5.70;;;5.20;;
29380;SDS011;16364;52.490;13.326;2023-04-01T15:38:11;6.00;;;5.27;;
29380;SDS011;16364;52.490;13.326;2023-04-01T15:43:24;6.37;;;5.83;;
29380;SDS011;16364;52.490;13.326;2023-04-01T15:48:50;5.80;;;5.30;;
29380;SDS011;16364;52.490;13.326;2023-04-01T15:56:40;12.47;;;11.00;;
29380;SDS011;16364;52.490;13.326;2023-04-01T15:59:20;6.80;;;6.20;;
29380;SDS011;16364;52.490;13.326;2023-04-01T16:04:48;7.03;;;6.37;;
29380;SDS011;16364;52.490;13.326;2023-04-01T16:12:15;7.63;;;6.30;;
29380;SDS011;16364;52.490;13.326;2023-04-01T16:19:59;6.67;;;5.97;;
29380;SDS011;16364;52.490;13.326;2023-04-01T16:22:29;7.20;;;6.20;;
29380;SDS011;16364;52.490;13.326;2023-04-01T16:27:42;6.30;;;5.70;;
29380;SDS011;16364;52.490;13.326;2023-04-01T16:32:54;5.73;;;5.33;;
29380;SDS011;16364;52.490;13.326;2023-04-01T16:38:24;6.93;;;6.43;;
29380;SDS011;16364;52.490;13.326;2023-04-01T16:43:30;5.80;;;5.30;;
29380;SDS011;16364;52.490;13.326;2023-04-01T16:51:15;6.57;;;5.17;;
29380;SDS011;16364;52.490;13.326;2023-04-01T16:53:42;6.37;;;5.77;;
29380;SDS011;16364;52.490;13.326;2023-04-01T16:56:22;6.80;;;4.97;;
29380;SDS011;16364;52.490;13.326;2023-04-01T17:01:43;5.00;;;4.50;;
29380;SDS011;16364;52.490;13.326;2023-04-01T17:04:16;5.03;;;3.97;;
29380;SDS011;16364;52.490;13.326;2023-04-01T17:06:45;5.43;;;4.20;;
29380;SDS011;16364;52.490;13.326;2023-04-01T17:09:24;3.77;;;3.47;;
29380;SDS011;16364;52.490;13.326;2023-04-01T17:11:59;5.83;;;4.80;;
29380;SDS011;16364;52.490;13.326;2023-04-01T17:19:27;4.77;;;4.40;;
29380;SDS011;16364;52.490;13.326;2023-04-01T17:22:12;5.53;;;5.10;;
29380;SDS011;16364;52.490;13.326;2023-04-01T17:24:48;5.30;;;4.80;;
29380;SDS011;16364;52.490;13.326;2023-04-01T17:32:48;5.70;;;5.30;;
29380;SDS011;16364;52.490;13.326;2023-04-01T17:35:32;6.40;;;5.50;;
29380;SDS011;16364;52.490;13.326;2023-04-01T17:41:08;7.20;;;5.17;;
29380;SDS011;16364;52.490;13.326;2023-04-01T17:43:42;6.10;;;5.60;;
29380;SDS011;16364;52.490;13.326;2023-04-01T17:51:59;8.37;;;6.17;;
29380;SDS011;16364;52.490;13.326;2023-04-01T17:54:31;4.97;;;4.57;;
29380;SDS011;16364;52.490;13.326;2023-04-01T17:57:02;6.07;;;5.47;;
29380;SDS011;16364;52.490;13.326;2023-04-01T18:18:05;6.90;;;6.27;;
29380;SDS011;16364;52.490;13.326;2023-04-01T18:25:50;7.70;;;5.57;;
29380;SDS011;16364;52.490;13.326;2023-04-01T18:30:43;6.80;;;5.70;;
29380;SDS011;16364;52.490;13.326;2023-04-01T18:33:15;5.20;;;4.80;;
29380;SDS011;16364;52.490;13.326;2023-04-01T18:35:47;5.93;;;5.33;;
29380;SDS011;16364;52.490;13.326;2023-04-01T18:40:50;8.80;;;6.13;;
29380;SDS011;16364;52.490;13.326;2023-04-01T18:43:30;6.60;;;5.90;;
29380;SDS011;16364;52.490;13.326;2023-04-01T18:46:49;5.50;;;4.90;;
29380;SDS011;16364;52.490;13.326;2023-04-01T18:48:52;5.73;;;5.20;;
29380;SDS011;16364;52.490;13.326;2023-04-01T18:51:44;6.87;;;6.27;;
29380;SDS011;16364;52.490;13.326;2023-04-01T18:54:17;5.50;;;5.00;;
29380;SDS011;16364;52.490;13.326;2023-04-01T18:56:47;6.30;;;5.50;;
29380;SDS011;16364;52.490;13.326;2023-04-01T19:02:24;5.93;;;5.43;;
29380;SDS011;16364;52.490;13.326;2023-04-01T19:20:53;9.60;;;6.20;;
29380;SDS011;16364;52.490;13.326;2023-04-01T19:25:53;11.83;;;8.73;;
29380;SDS011;16364;52.490;13.326;2023-04-01T19:28:34;11.87;;;7.40;;
29380;SDS011;16364;52.490;13.326;2023-04-01T19:39:26;6.60;;;6.00;;
29380;SDS011;16364;52.490;13.326;2023-04-01T19:42:00;9.47;;;6.20;;
29380;SDS011;16364;52.490;13.326;2023-04-01T19:44:36;7.23;;;6.53;;
29380;SDS011;16364;52.490;13.326;2023-04-01T19:47:07;7.10;;;6.40;;
29380;SDS011;16364;52.490;13.326;2023-04-01T19:49:42;8.53;;;6.30;;
29380;SDS011;16364;52.490;13.326;2023-04-01T19:52:29;11.17;;;7.30;;
29380;SDS011;16364;52.490;13.326;2023-04-01T19:55:02;12.70;;;8.27;;
29380;SDS011;16364;52.490;13.326;2023-04-01T19:57:47;10.00;;;6.57;;
29380;SDS011;16364;52.490;13.326;2023-04-01T20:10:43;7.80;;;6.73;;
29380;SDS011;16364;52.490;13.326;2023-04-01T20:15:40;9.40;;;8.20;;
29380;SDS011;16364;52.490;13.326;2023-04-01T20:20:39;9.83;;;7.83;;
29380;SDS011;16364;52.490;13.326;2023-04-01T20:25:31;9.67;;;8.50;;
29380;SDS011;16364;52.490;13.326;2023-04-01T20:28:00;12.20;;;8.10;;
29380;SDS011;16364;52.490;13.326;2023-04-01T20:35:45;9.37;;;7.60;;
29380;SDS011;16364;52.490;13.326;2023-04-01T20:38:35;11.07;;;9.00;;
29380;SDS011;16364;52.490;13.326;2023-04-01T20:41:23;8.67;;;7.90;;
29380;SDS011;16364;52.490;13.326;2023-04-01T20:46:20;12.00;;;8.20;;
29380;SDS011;16364;52.490;13.326;2023-04-01T20:51:19;8.40;;;7.50;;
29380;SDS011;16364;52.490;13.326;2023-04-01T20:53:50;13.73;;;8.37;;
29380;SDS011;16364;52.490;13.326;2023-04-01T20:56:24;10.07;;;7.47;;
29380;SDS011;16364;52.490;13.326;2023-04-01T21:01:41;7.00;;;6.30;;
29380;SDS011;16364;52.490;13.326;2023-04-01T21:09:38;9.80;;;7.90;;
29380;SDS011;16364;52.490;13.326;2023-04-01T21:12:13;9.90;;;8.00;;
29380;SDS011;16364;52.490;13.326;2023-04-01T21:14:49;13.10;;;7.90;;
29380;SDS011;16364;52.490;13.326;2023-04-01T21:20:19;37.63;;;21.40;;
29380;SDS011;16364;52.490;13.326;2023-04-01T21:23:20;22.83;;;14.47;;
29380;SDS011;16364;52.490;13.326;2023-04-01T21:25:54;50.97;;;25.53;;
29380;SDS011;16364;52.490;13.326;2023-04-01T21:33:33;9.10;;;7.53;;
29380;SDS011;16364;52.490;13.326;2023-04-01T21:36:15;13.93;;;8.97;;
29380;SDS011;16364;52.490;13.326;2023-04-01T22:04:47;12.30;;;6.40;;
29380;SDS011;16364;52.490;13.326;2023-04-01T22:07:17;10.13;;;6.73;;
29380;SDS011;16364;52.490;13.326;2023-04-01T22:10:28;9.13;;;6.77;;
29380;SDS011;16364;52.490;13.326;2023-04-01T22:12:35;11.67;;;6.73;;
29380;SDS011;16364;52.490;13.326;2023-04-01T22:22:47;7.47;;;5.47;;
29380;SDS011;16364;52.490;13.326;2023-04-01T22:25:20;7.77;;;6.03;;
29380;SDS011;16364;52.490;13.326;2023-04-01T22:32:40;7.70;;;6.10;;
29380;SDS011;16364;52.490;13.326;2023-04-01T22:37:51;9.03;;;5.57;;
29380;SDS011;16364;52.490;13.326;2023-04-01T22:43:07;5.50;;;4.40;;
29380;SDS011;16364;52.490;13.326;2023-04-01T22:45:39;6.47;;;4.77;;
29380;SDS011;16364;52.490;13.326;2023-04-01T22:55:38;5.37;;;4.10;;
29380;SDS011;16364;52.490;13.326;2023-04-01T22:58:18;4.40;;;3.70;;
29380;SDS011;16364;52.490;13.326;2023-04-01T23:00:50;5.43;;;3.60;;
29380;SDS011;16364;52.490;13.326;2023-04-01T23:03:19;3.67;;;3.37;;
29380;SDS011;16364;52.490;13.326;2023-04-01T23:05:55;4.00;;;3.60;;
29380;SDS011;16364;52.490;13.326;2023-04-01T23:11:06;3.67;;;3.33;;
29380;SDS011;16364;52.490;13.326;2023-04-01T23:13:33;5.47;;;4.97;;
29380;SDS011;16364;52.490;13.326;2023-04-01T23:16:00;5.60;;;5.07;;
29380;SDS011;16364;52.490;13.326;2023-04-01T23:18:35;5.97;;;5.27;;
29380;SDS011;16364;52.490;13.326;2023-04-01T23:26:35;4.23;;;3.83;;
29380;SDS011;16364;52.490;13.326;2023-04-01T23:29:01;4.60;;;4.20;;
29380;SDS011;16364;52.490;13.326;2023-04-01T23:31:30;5.47;;;4.60;;
29380;SDS011;16364;52.490;13.326;2023-04-01T23:33:57;5.93;;;4.50;;
29380;SDS011;16364;52.490;13.326;2023-04-01T23:36:23;7.97;;;3.97;;
29380;SDS011;16364;52.490;13.326;2023-04-01T23:38:49;4.00;;;3.67;;
29380;SDS011;16364;52.490;13.326;2023-04-01T23:41:23;6.47;;;3.87;;
29380;SDS011;16364;52.490;13.326;2023-04-01T23:43:56;5.40;;;3.13;;
29380;SDS011;16364;52.490;13.326;2023-04-01T23:46:21;4.00;;;3.57;;
29380;SDS011;16364;52.490;13.326;2023-04-01T23:48:47;4.93;;;3.90;;
29380;SDS011;16364;52.490;13.326;2023-04-01T23:51:26;4.10;;;3.43;;
29380;SDS011;16364;52.490;13.326;2023-04-01T23:53:56;5.20;;;4.30;;
29380;SDS011;16364;52.490;13.326;2023-04-01T23:56:21;5.27;;;4.80;;
29380;SDS011;16364;52.490;13.326;2023-04-01T23:58:48;4.50;;;4.10;;
